sensor_id;sensor_type;location;lat;lon;timestamp;P1;durP1;ratioP1;P2;durP2;ratioP2
68653;SDS011;55636;51.108;13.622;2023-08-01T00:00:21;3.88;;;2.88;;
68653;SDS011;55636;51.108;13.622;2023-08-01T00:01:26;4.03;;;3.00;;
68653;SDS011;55636;51.108;13.622;2023-08-01T00:02:28;3.85;;;2.92;;
68653;SDS011;55636;51.108;13.622;2023-08-01T00:03:31;3.88;;;2.95;;
68653;SDS011;55636;51.108;13.622;2023-08-01T00:04:34;4.75;;;3.20;;
68653;SDS011;55636;51.108;13.622;2023-08-01T00:05:36;3.42;;;3.08;;
68653;SDS011;55636;51.108;13.622;2023-08-01T00:06:40;3.78;;;2.90;;
68653;SDS011;55636;51.108;13.622;2023-08-01T00:07:43;3.97;;;3.10;;
68653;SDS011;55636;51.108;13.622;2023-08-01T00:08:45;4.32;;;3.17;;
68653;SDS011;55636;51.108;13.622;2023-08-01T00:09:48;3.25;;;2.92;;
68653;SDS011;55636;51.108;13.622;2023-08-01T00:10:51;3.80;;;3.00;;
68653;SDS011;55636;51.108;13.622;2023-08-01T00:11:54;3.25;;;2.78;;
68653;SDS011;55636;51.108;13.622;2023-08-01T00:12:57;4.57;;;3.30;;
68653;SDS011;55636;51.108;13.622;2023-08-01T00:13:59;3.95;;;2.95;;
68653;SDS011;55636;51.108;13.622;2023-08-01T00:15:02;3.20;;;2.90;;
68653;SDS011;55636;51.108;13.622;2023-08-01T00:16:06;4.47;;;3.00;;
68653;SDS011;55636;51.108;13.622;2023-08-01T00:17:09;4.10;;;2.90;;
68653;SDS011;55636;51.108;13.622;2023-08-01T00:18:12;4.28;;;3.00;;
68653;SDS011;55636;51.108;13.622;2023-08-01T00:19:15;4.80;;;3.33;;
68653;SDS011;55636;51.108;13.622;2023-08-01T00:20:19;4.45;;;3.15;;
68653;SDS011;55636;51.108;13.622;2023-08-01T00:21:22;3.50;;;3.08;;
68653;SDS011;55636;51.108;13.622;2023-08-01T00:22:24;4.30;;;3.33;;
68653;SDS011;55636;51.108;13.622;2023-08-01T00:23:26;4.55;;;3.13;;
68653;SDS011;55636;51.108;13.622;2023-08-01T00:24:29;4.10;;;3.17;;
68653;SDS011;55636;51.108;13.622;2023-08-01T00:25:31;3.72;;;3.20;;
68653;SDS011;55636;51.108;13.622;2023-08-01T00:26:34;3.67;;;3.00;;
68653;SDS011;55636;51.108;13.622;2023-08-01T00:27:37;3.10;;;2.78;;
68653;SDS011;55636;51.108;13.622;2023-08-01T00:28:41;5.10;;;3.38;;
68653;SDS011;55636;51.108;13.622;2023-08-01T00:29:44;4.18;;;3.05;;
68653;SDS011;55636;51.108;13.622;2023-08-01T00:30:47;4.40;;;3.33;;
68653;SDS011;55636;51.108;13.622;2023-08-01T00:31:49;2.95;;;2.65;;
68653;SDS011;55636;51.108;13.622;2023-08-01T00:32:52;3.53;;;2.85;;
68653;SDS011;55636;51.108;13.622;2023-08-01T00:33:55;4.88;;;3.20;;
68653;SDS011;55636;51.108;13.622;2023-08-01T00:34:57;4.05;;;2.95;;
68653;SDS011;55636;51.108;13.622;2023-08-01T00:36:00;3.92;;;3.10;;
68653;SDS011;55636;51.108;13.622;2023-08-01T00:37:03;3.90;;;3.10;;
68653;SDS011;55636;51.108;13.622;2023-08-01T00:38:06;3.92;;;2.97;;
68653;SDS011;55636;51.108;13.622;2023-08-01T00:39:09;3.50;;;3.00;;
68653;SDS011;55636;51.108;13.622;2023-08-01T00:40:11;4.72;;;3.08;;
68653;SDS011;55636;51.108;13.622;2023-08-01T00:41:14;3.22;;;2.90;;
68653;SDS011;55636;51.108;13.622;2023-08-01T00:42:17;4.20;;;3.15;;
68653;SDS011;55636;51.108;13.622;2023-08-01T00:43:19;4.63;;;3.10;;
68653;SDS011;55636;51.108;13.622;2023-08-01T00:44:22;5.55;;;3.10;;
68653;SDS011;55636;51.108;13.622;2023-08-01T00:45:27;3.50;;;2.90;;
68653;SDS011;55636;51.108;13.622;2023-08-01T00:46:32;4.15;;;3.10;;
68653;SDS011;55636;51.108;13.622;2023-08-01T00:47:34;4.07;;;3.05;;
68653;SDS011;55636;51.108;13.622;2023-08-01T00:48:38;3.58;;;3.03;;
68653;SDS011;55636;51.108;13.622;2023-08-01T00:49:40;3.38;;;3.00;;
68653;SDS011;55636;51.108;13.622;2023-08-01T00:50:43;3.50;;;3.03;;
68653;SDS011;55636;51.108;13.622;2023-08-01T00:51:47;4.25;;;3.20;;
68653;SDS011;55636;51.108;13.622;2023-08-01T00:52:50;3.90;;;3.00;;
68653;SDS011;55636;51.108;13.622;2023-08-01T00:53:54;3.25;;;2.80;;
68653;SDS011;55636;51.108;13.622;2023-08-01T00:54:56;4.65;;;3.08;;
68653;SDS011;55636;51.108;13.622;2023-08-01T00:55:59;3.72;;;3.22;;
68653;SDS011;55636;51.108;13.622;2023-08-01T00:57:02;4.53;;;3.00;;
68653;SDS011;55636;51.108;13.622;2023-08-01T00:58:05;3.42;;;2.90;;
68653;SDS011;55636;51.108;13.622;2023-08-01T00:59:10;3.13;;;2.80;;
68653;SDS011;55636;51.108;13.622;2023-08-01T01:00:13;3.85;;;2.97;;
68653;SDS011;55636;51.108;13.622;2023-08-01T01:01:16;3.10;;;2.72;;
68653;SDS011;55636;51.108;13.622;2023-08-01T01:02:18;4.20;;;3.08;;
68653;SDS011;55636;51.108;13.622;2023-08-01T01:03:24;3.10;;;2.80;;
68653;SDS011;55636;51.108;13.622;2023-08-01T01:04:26;3.83;;;2.83;;
68653;SDS011;55636;51.108;13.622;2023-08-01T01:05:35;4.75;;;3.22;;
68653;SDS011;55636;51.108;13.622;2023-08-01T01:08:12;4.05;;;3.15;;
68653;SDS011;55636;51.108;13.622;2023-08-01T01:09:15;5.75;;;3.15;;
68653;SDS011;55636;51.108;13.622;2023-08-01T01:10:18;6.75;;;3.10;;
68653;SDS011;55636;51.108;13.622;2023-08-01T01:11:21;4.43;;;3.00;;
68653;SDS011;55636;51.108;13.622;2023-08-01T01:12:23;3.22;;;2.80;;
68653;SDS011;55636;51.108;13.622;2023-08-01T01:13:26;3.88;;;2.83;;
68653;SDS011;55636;51.108;13.622;2023-08-01T01:14:29;3.50;;;2.80;;
68653;SDS011;55636;51.108;13.622;2023-08-01T01:15:32;3.40;;;2.92;;
68653;SDS011;55636;51.108;13.622;2023-08-01T01:16:34;3.60;;;2.92;;
68653;SDS011;55636;51.108;13.622;2023-08-01T01:17:37;3.75;;;3.35;;
68653;SDS011;55636;51.108;13.622;2023-08-01T01:18:40;3.65;;;3.00;;
68653;SDS011;55636;51.108;13.622;2023-08-01T01:19:43;4.38;;;3.20;;
68653;SDS011;55636;51.108;13.622;2023-08-01T01:20:45;4.30;;;2.90;;
68653;SDS011;55636;51.108;13.622;2023-08-01T01:21:49;4.30;;;3.08;;
68653;SDS011;55636;51.108;13.622;2023-08-01T01:22:52;3.97;;;3.05;;
68653;SDS011;55636;51.108;13.622;2023-08-01T01:23:57;3.47;;;3.15;;
68653;SDS011;55636;51.108;13.622;2023-08-01T01:25:01;3.90;;;3.40;;
68653;SDS011;55636;51.108;13.622;2023-08-01T01:26:05;4.38;;;3.50;;
68653;SDS011;55636;51.108;13.622;2023-08-01T01:27:09;4.28;;;3.45;;
68653;SDS011;55636;51.108;13.622;2023-08-01T01:28:12;3.97;;;3.35;;
68653;SDS011;55636;51.108;13.622;2023-08-01T01:29:15;3.58;;;3.10;;
68653;SDS011;55636;51.108;13.622;2023-08-01T01:30:19;3.55;;;3.25;;
68653;SDS011;55636;51.108;13.622;2023-08-01T01:31:22;3.83;;;3.38;;
68653;SDS011;55636;51.108;13.622;2023-08-01T01:32:25;4.57;;;3.40;;
68653;SDS011;55636;51.108;13.622;2023-08-01T01:33:27;3.40;;;3.10;;
68653;SDS011;55636;51.108;13.622;2023-08-01T01:34:31;3.72;;;2.92;;
68653;SDS011;55636;51.108;13.622;2023-08-01T01:35:34;3.72;;;3.10;;
68653;SDS011;55636;51.108;13.622;2023-08-01T01:36:37;4.10;;;3.55;;
68653;SDS011;55636;51.108;13.622;2023-08-01T01:37:40;3.30;;;3.00;;
68653;SDS011;55636;51.108;13.622;2023-08-01T01:38:42;4.07;;;3.63;;
68653;SDS011;55636;51.108;13.622;2023-08-01T01:39:45;5.22;;;3.50;;
68653;SDS011;55636;51.108;13.622;2023-08-01T01:40:47;5.47;;;3.38;;
68653;SDS011;55636;51.108;13.622;2023-08-01T01:41:50;3.83;;;3.40;;
68653;SDS011;55636;51.108;13.622;2023-08-01T01:42:52;3.78;;;3.17;;
68653;SDS011;55636;51.108;13.622;2023-08-01T01:43:54;3.42;;;3.13;;
68653;SDS011;55636;51.108;13.622;2023-08-01T01:44:57;3.60;;;3.30;;
68653;SDS011;55636;51.108;13.622;2023-08-01T01:45:59;4.10;;;3.13;;
68653;SDS011;55636;51.108;13.622;2023-08-01T01:47:02;5.35;;;3.33;;
68653;SDS011;55636;51.108;13.622;2023-08-01T01:48:04;3.58;;;3.22;;
68653;SDS011;55636;51.108;13.622;2023-08-01T01:49:07;3.80;;;3.40;;
68653;SDS011;55636;51.108;13.622;2023-08-01T01:50:09;5.18;;;3.17;;
68653;SDS011;55636;51.108;13.622;2023-08-01T01:51:12;3.33;;;2.95;;
68653;SDS011;55636;51.108;13.622;2023-08-01T01:52:15;4.10;;;3.22;;
68653;SDS011;55636;51.108;13.622;2023-08-01T01:53:17;4.22;;;3.55;;
68653;SDS011;55636;51.108;13.622;2023-08-01T01:54:20;4.07;;;3.20;;
68653;SDS011;55636;51.108;13.622;2023-08-01T01:55:22;3.80;;;3.40;;
68653;SDS011;55636;51.108;13.622;2023-08-01T01:56:26;4.18;;;3.35;;
68653;SDS011;55636;51.108;13.622;2023-08-01T01:57:28;3.50;;;3.20;;
68653;SDS011;55636;51.108;13.622;2023-08-01T01:58:31;3.95;;;3.10;;
68653;SDS011;55636;51.108;13.622;2023-08-01T01:59:33;4.38;;;3.15;;
68653;SDS011;55636;51.108;13.622;2023-08-01T02:00:36;4.03;;;3.25;;
68653;SDS011;55636;51.108;13.622;2023-08-01T02:01:38;3.67;;;3.38;;
68653;SDS011;55636;51.108;13.622;2023-08-01T02:02:41;3.83;;;2.97;;
68653;SDS011;55636;51.108;13.622;2023-08-01T02:03:43;3.67;;;3.17;;
68653;SDS011;55636;51.108;13.622;2023-08-01T02:04:46;4.72;;;3.40;;
68653;SDS011;55636;51.108;13.622;2023-08-01T02:05:50;3.55;;;3.25;;
68653;SDS011;55636;51.108;13.622;2023-08-01T02:06:53;3.45;;;3.03;;
68653;SDS011;55636;51.108;13.622;2023-08-01T02:07:58;4.00;;;3.30;;
68653;SDS011;55636;51.108;13.622;2023-08-01T02:09:01;3.28;;;2.95;;
68653;SDS011;55636;51.108;13.622;2023-08-01T02:10:04;3.40;;;3.05;;
68653;SDS011;55636;51.108;13.622;2023-08-01T02:11:08;4.15;;;3.25;;
68653;SDS011;55636;51.108;13.622;2023-08-01T02:12:11;3.42;;;3.05;;
68653;SDS011;55636;51.108;13.622;2023-08-01T02:13:16;3.22;;;2.90;;
68653;SDS011;55636;51.108;13.622;2023-08-01T02:14:19;4.00;;;3.15;;
68653;SDS011;55636;51.108;13.622;2023-08-01T02:15:21;3.25;;;2.95;;
68653;SDS011;55636;51.108;13.622;2023-08-01T02:16:24;3.40;;;3.10;;
68653;SDS011;55636;51.108;13.622;2023-08-01T02:17:27;3.47;;;3.15;;
68653;SDS011;55636;51.108;13.622;2023-08-01T02:18:29;4.18;;;3.00;;
68653;SDS011;55636;51.108;13.622;2023-08-01T02:19:33;3.47;;;3.13;;
68653;SDS011;55636;51.108;13.622;2023-08-01T02:20:36;3.30;;;3.00;;
68653;SDS011;55636;51.108;13.622;2023-08-01T02:21:40;4.85;;;3.20;;
68653;SDS011;55636;51.108;13.622;2023-08-01T02:22:42;3.33;;;3.00;;
68653;SDS011;55636;51.108;13.622;2023-08-01T02:23:45;4.15;;;3.40;;
68653;SDS011;55636;51.108;13.622;2023-08-01T02:24:48;3.25;;;2.95;;
68653;SDS011;55636;51.108;13.622;2023-08-01T02:25:51;3.28;;;2.90;;
68653;SDS011;55636;51.108;13.622;2023-08-01T02:26:53;3.58;;;3.08;;
68653;SDS011;55636;51.108;13.622;2023-08-01T02:27:56;4.07;;;2.90;;
68653;SDS011;55636;51.108;13.622;2023-08-01T02:29:00;4.13;;;3.10;;
68653;SDS011;55636;51.108;13.622;2023-08-01T02:30:05;3.38;;;2.88;;
68653;SDS011;55636;51.108;13.622;2023-08-01T02:31:09;3.42;;;2.72;;
68653;SDS011;55636;51.108;13.622;2023-08-01T02:32:11;3.08;;;2.78;;
68653;SDS011;55636;51.108;13.622;2023-08-01T02:33:14;3.47;;;3.00;;
68653;SDS011;55636;51.108;13.622;2023-08-01T02:34:16;3.17;;;2.88;;
68653;SDS011;55636;51.108;13.622;2023-08-01T02:35:19;4.03;;;3.25;;
68653;SDS011;55636;51.108;13.622;2023-08-01T02:36:22;3.30;;;3.00;;
68653;SDS011;55636;51.108;13.622;2023-08-01T02:37:24;3.53;;;3.03;;
68653;SDS011;55636;51.108;13.622;2023-08-01T02:38:27;3.25;;;2.92;;
68653;SDS011;55636;51.108;13.622;2023-08-01T02:39:29;3.40;;;3.10;;
68653;SDS011;55636;51.108;13.622;2023-08-01T02:40:33;3.85;;;2.95;;
68653;SDS011;55636;51.108;13.622;2023-08-01T02:41:35;2.85;;;2.63;;
68653;SDS011;55636;51.108;13.622;2023-08-01T02:42:38;4.45;;;2.97;;
68653;SDS011;55636;51.108;13.622;2023-08-01T02:43:40;4.35;;;3.08;;
68653;SDS011;55636;51.108;13.622;2023-08-01T02:44:43;3.30;;;2.90;;
68653;SDS011;55636;51.108;13.622;2023-08-01T02:45:46;3.78;;;3.15;;
68653;SDS011;55636;51.108;13.622;2023-08-01T02:46:48;3.95;;;3.03;;
68653;SDS011;55636;51.108;13.622;2023-08-01T02:47:51;3.70;;;3.00;;
68653;SDS011;55636;51.108;13.622;2023-08-01T02:48:53;4.00;;;2.88;;
68653;SDS011;55636;51.108;13.622;2023-08-01T02:49:56;3.30;;;3.00;;
68653;SDS011;55636;51.108;13.622;2023-08-01T02:50:58;3.78;;;3.13;;
68653;SDS011;55636;51.108;13.622;2023-08-01T02:52:01;3.38;;;2.88;;
68653;SDS011;55636;51.108;13.622;2023-08-01T02:53:04;3.42;;;2.85;;
68653;SDS011;55636;51.108;13.622;2023-08-01T02:54:07;3.47;;;2.92;;
68653;SDS011;55636;51.108;13.622;2023-08-01T02:55:09;3.20;;;2.90;;
68653;SDS011;55636;51.108;13.622;2023-08-01T02:56:11;3.72;;;3.33;;
68653;SDS011;55636;51.108;13.622;2023-08-01T02:57:14;3.03;;;2.70;;
68653;SDS011;55636;51.108;13.622;2023-08-01T02:58:16;3.20;;;2.85;;
68653;SDS011;55636;51.108;13.622;2023-08-01T02:59:19;4.97;;;2.90;;
68653;SDS011;55636;51.108;13.622;2023-08-01T03:00:21;3.00;;;2.70;;
68653;SDS011;55636;51.108;13.622;2023-08-01T03:01:24;4.90;;;2.90;;
68653;SDS011;55636;51.108;13.622;2023-08-01T03:02:26;3.40;;;3.08;;
68653;SDS011;55636;51.108;13.622;2023-08-01T03:03:30;4.05;;;3.00;;
68653;SDS011;55636;51.108;13.622;2023-08-01T03:04:33;3.70;;;3.10;;
68653;SDS011;55636;51.108;13.622;2023-08-01T03:05:47;3.47;;;2.75;;
68653;SDS011;55636;51.108;13.622;2023-08-01T03:06:50;3.33;;;2.80;;
68653;SDS011;55636;51.108;13.622;2023-08-01T03:07:52;3.65;;;2.90;;
68653;SDS011;55636;51.108;13.622;2023-08-01T03:08:55;2.90;;;2.60;;
68653;SDS011;55636;51.108;13.622;2023-08-01T03:09:57;3.90;;;2.88;;
68653;SDS011;55636;51.108;13.622;2023-08-01T03:11:00;4.13;;;2.75;;
68653;SDS011;55636;51.108;13.622;2023-08-01T03:12:03;3.05;;;2.67;;
68653;SDS011;55636;51.108;13.622;2023-08-01T03:13:05;3.20;;;2.90;;
68653;SDS011;55636;51.108;13.622;2023-08-01T03:14:08;3.17;;;2.83;;
68653;SDS011;55636;51.108;13.622;2023-08-01T03:15:10;3.08;;;2.78;;
68653;SDS011;55636;51.108;13.622;2023-08-01T03:16:13;4.45;;;3.17;;
68653;SDS011;55636;51.108;13.622;2023-08-01T03:17:16;3.55;;;2.85;;
68653;SDS011;55636;51.108;13.622;2023-08-01T03:18:18;3.33;;;2.88;;
68653;SDS011;55636;51.108;13.622;2023-08-01T03:19:21;3.35;;;3.05;;
68653;SDS011;55636;51.108;13.622;2023-08-01T03:20:23;3.17;;;2.88;;
68653;SDS011;55636;51.108;13.622;2023-08-01T03:21:26;3.45;;;2.75;;
68653;SDS011;55636;51.108;13.622;2023-08-01T03:22:28;3.67;;;2.70;;
68653;SDS011;55636;51.108;13.622;2023-08-01T03:23:31;4.43;;;2.88;;
68653;SDS011;55636;51.108;13.622;2023-08-01T03:24:33;4.18;;;3.00;;
68653;SDS011;55636;51.108;13.622;2023-08-01T03:25:36;3.42;;;2.70;;
68653;SDS011;55636;51.108;13.622;2023-08-01T03:26:38;4.43;;;2.85;;
68653;SDS011;55636;51.108;13.622;2023-08-01T03:27:41;2.60;;;2.40;;
68653;SDS011;55636;51.108;13.622;2023-08-01T03:28:44;3.55;;;2.78;;
68653;SDS011;55636;51.108;13.622;2023-08-01T03:29:46;3.83;;;3.00;;
68653;SDS011;55636;51.108;13.622;2023-08-01T03:30:48;3.55;;;2.80;;
68653;SDS011;55636;51.108;13.622;2023-08-01T03:31:52;3.88;;;2.95;;
68653;SDS011;55636;51.108;13.622;2023-08-01T03:32:55;4.50;;;3.08;;
68653;SDS011;55636;51.108;13.622;2023-08-01T03:33:57;3.42;;;2.78;;
68653;SDS011;55636;51.108;13.622;2023-08-01T03:35:03;3.75;;;2.85;;
68653;SDS011;55636;51.108;13.622;2023-08-01T03:36:07;4.15;;;2.80;;
68653;SDS011;55636;51.108;13.622;2023-08-01T03:37:09;3.30;;;2.75;;
68653;SDS011;55636;51.108;13.622;2023-08-01T03:38:12;3.75;;;2.78;;
68653;SDS011;55636;51.108;13.622;2023-08-01T03:39:16;3.42;;;3.13;;
68653;SDS011;55636;51.108;13.622;2023-08-01T03:40:19;3.03;;;2.58;;
68653;SDS011;55636;51.108;13.622;2023-08-01T03:41:22;3.17;;;2.60;;
68653;SDS011;55636;51.108;13.622;2023-08-01T03:42:24;3.50;;;2.72;;
68653;SDS011;55636;51.108;13.622;2023-08-01T03:43:27;3.10;;;2.60;;
68653;SDS011;55636;51.108;13.622;2023-08-01T03:44:29;4.00;;;2.92;;
68653;SDS011;55636;51.108;13.622;2023-08-01T03:45:34;3.95;;;2.90;;
68653;SDS011;55636;51.108;13.622;2023-08-01T03:46:36;2.75;;;2.55;;
68653;SDS011;55636;51.108;13.622;2023-08-01T03:47:39;2.97;;;2.67;;
68653;SDS011;55636;51.108;13.622;2023-08-01T03:48:41;3.75;;;2.80;;
68653;SDS011;55636;51.108;13.622;2023-08-01T03:49:45;3.30;;;2.70;;
68653;SDS011;55636;51.108;13.622;2023-08-01T03:50:49;2.90;;;2.60;;
68653;SDS011;55636;51.108;13.622;2023-08-01T03:51:51;2.75;;;2.53;;
68653;SDS011;55636;51.108;13.622;2023-08-01T03:52:54;3.42;;;2.50;;
68653;SDS011;55636;51.108;13.622;2023-08-01T03:53:58;3.85;;;2.65;;
68653;SDS011;55636;51.108;13.622;2023-08-01T03:55:14;2.90;;;2.63;;
68653;SDS011;55636;51.108;13.622;2023-08-01T03:56:19;3.10;;;2.80;;
68653;SDS011;55636;51.108;13.622;2023-08-01T03:57:21;2.75;;;2.55;;
68653;SDS011;55636;51.108;13.622;2023-08-01T03:58:24;3.15;;;2.80;;
68653;SDS011;55636;51.108;13.622;2023-08-01T03:59:26;4.07;;;3.00;;
68653;SDS011;55636;51.108;13.622;2023-08-01T04:00:29;2.92;;;2.70;;
68653;SDS011;55636;51.108;13.622;2023-08-01T04:01:34;3.60;;;2.75;;
68653;SDS011;55636;51.108;13.622;2023-08-01T04:02:37;3.58;;;2.80;;
68653;SDS011;55636;51.108;13.622;2023-08-01T04:03:39;3.28;;;2.90;;
68653;SDS011;55636;51.108;13.622;2023-08-01T04:04:42;4.53;;;3.20;;
68653;SDS011;55636;51.108;13.622;2023-08-01T04:05:44;3.08;;;2.75;;
68653;SDS011;55636;51.108;13.622;2023-08-01T04:06:47;3.13;;;2.80;;
68653;SDS011;55636;51.108;13.622;2023-08-01T04:07:50;3.35;;;2.83;;
68653;SDS011;55636;51.108;13.622;2023-08-01T04:08:52;3.72;;;2.72;;
68653;SDS011;55636;51.108;13.622;2023-08-01T04:09:55;3.72;;;3.00;;
68653;SDS011;55636;51.108;13.622;2023-08-01T04:10:57;4.85;;;2.60;;
68653;SDS011;55636;51.108;13.622;2023-08-01T04:11:59;4.07;;;2.72;;
68653;SDS011;55636;51.108;13.622;2023-08-01T04:13:02;3.47;;;2.85;;
68653;SDS011;55636;51.108;13.622;2023-08-01T04:14:04;3.15;;;2.75;;
68653;SDS011;55636;51.108;13.622;2023-08-01T04:15:07;3.25;;;2.55;;
68653;SDS011;55636;51.108;13.622;2023-08-01T04:16:10;3.03;;;2.65;;
68653;SDS011;55636;51.108;13.622;2023-08-01T04:17:12;3.22;;;2.92;;
68653;SDS011;55636;51.108;13.622;2023-08-01T04:18:15;3.00;;;2.70;;
68653;SDS011;55636;51.108;13.622;2023-08-01T04:19:17;3.72;;;2.60;;
68653;SDS011;55636;51.108;13.622;2023-08-01T04:20:20;2.85;;;2.65;;
68653;SDS011;55636;51.108;13.622;2023-08-01T04:21:24;3.25;;;2.72;;
68653;SDS011;55636;51.108;13.622;2023-08-01T04:22:26;3.47;;;2.80;;
68653;SDS011;55636;51.108;13.622;2023-08-01T04:23:28;3.30;;;2.83;;
68653;SDS011;55636;51.108;13.622;2023-08-01T04:24:31;3.80;;;2.97;;
68653;SDS011;55636;51.108;13.622;2023-08-01T04:25:34;4.25;;;2.97;;
68653;SDS011;55636;51.108;13.622;2023-08-01T04:26:36;2.97;;;2.70;;
68653;SDS011;55636;51.108;13.622;2023-08-01T04:27:40;3.55;;;2.72;;
68653;SDS011;55636;51.108;13.622;2023-08-01T04:28:42;3.67;;;2.80;;
68653;SDS011;55636;51.108;13.622;2023-08-01T04:29:45;3.03;;;2.60;;
68653;SDS011;55636;51.108;13.622;2023-08-01T04:30:50;3.03;;;2.63;;
68653;SDS011;55636;51.108;13.622;2023-08-01T04:31:53;3.50;;;2.75;;
68653;SDS011;55636;51.108;13.622;2023-08-01T04:32:56;3.53;;;2.80;;
68653;SDS011;55636;51.108;13.622;2023-08-01T04:33:58;3.25;;;2.53;;
68653;SDS011;55636;51.108;13.622;2023-08-01T04:35:01;3.67;;;2.80;;
68653;SDS011;55636;51.108;13.622;2023-08-01T04:36:04;2.55;;;2.33;;
68653;SDS011;55636;51.108;13.622;2023-08-01T04:37:06;2.60;;;2.40;;
68653;SDS011;55636;51.108;13.622;2023-08-01T04:38:09;3.03;;;2.63;;
68653;SDS011;55636;51.108;13.622;2023-08-01T04:39:14;4.65;;;2.60;;
68653;SDS011;55636;51.108;13.622;2023-08-01T04:40:16;2.85;;;2.65;;
68653;SDS011;55636;51.108;13.622;2023-08-01T04:41:19;2.92;;;2.45;;
68653;SDS011;55636;51.108;13.622;2023-08-01T04:42:22;2.63;;;2.42;;
68653;SDS011;55636;51.108;13.622;2023-08-01T04:43:24;2.50;;;2.30;;
68653;SDS011;55636;51.108;13.622;2023-08-01T04:44:27;3.30;;;2.55;;
68653;SDS011;55636;51.108;13.622;2023-08-01T04:45:29;3.63;;;2.47;;
68653;SDS011;55636;51.108;13.622;2023-08-01T04:46:32;2.50;;;2.30;;
68653;SDS011;55636;51.108;13.622;2023-08-01T04:47:35;3.35;;;2.38;;
68653;SDS011;55636;51.108;13.622;2023-08-01T04:48:37;2.72;;;2.45;;
68653;SDS011;55636;51.108;13.622;2023-08-01T04:49:43;3.22;;;2.38;;
68653;SDS011;55636;51.108;13.622;2023-08-01T04:50:45;2.85;;;2.42;;
68653;SDS011;55636;51.108;13.622;2023-08-01T04:51:49;2.50;;;2.30;;
68653;SDS011;55636;51.108;13.622;2023-08-01T04:52:52;2.20;;;2.00;;
68653;SDS011;55636;51.108;13.622;2023-08-01T04:53:54;2.22;;;2.00;;
68653;SDS011;55636;51.108;13.622;2023-08-01T04:54:57;2.20;;;1.90;;
68653;SDS011;55636;51.108;13.622;2023-08-01T04:55:59;2.20;;;2.00;;
68653;SDS011;55636;51.108;13.622;2023-08-01T04:57:02;2.40;;;2.08;;
68653;SDS011;55636;51.108;13.622;2023-08-01T04:58:05;3.30;;;1.90;;
68653;SDS011;55636;51.108;13.622;2023-08-01T04:59:10;2.35;;;1.90;;
68653;SDS011;55636;51.108;13.622;2023-08-01T05:00:13;2.60;;;2.17;;
68653;SDS011;55636;51.108;13.622;2023-08-01T05:01:16;2.20;;;2.00;;
68653;SDS011;55636;51.108;13.622;2023-08-01T05:02:20;1.95;;;1.75;;
68653;SDS011;55636;51.108;13.622;2023-08-01T05:03:23;2.92;;;2.17;;
68653;SDS011;55636;51.108;13.622;2023-08-01T05:04:25;2.08;;;1.88;;
68653;SDS011;55636;51.108;13.622;2023-08-01T05:05:28;2.40;;;1.98;;
68653;SDS011;55636;51.108;13.622;2023-08-01T05:06:30;2.70;;;2.10;;
68653;SDS011;55636;51.108;13.622;2023-08-01T05:07:33;2.88;;;2.10;;
68653;SDS011;55636;51.108;13.622;2023-08-01T05:08:35;2.20;;;2.00;;
68653;SDS011;55636;51.108;13.622;2023-08-01T05:09:38;2.22;;;2.03;;
68653;SDS011;55636;51.108;13.622;2023-08-01T05:10:40;2.50;;;2.00;;
68653;SDS011;55636;51.108;13.622;2023-08-01T05:11:42;1.95;;;1.80;;
68653;SDS011;55636;51.108;13.622;2023-08-01T05:12:45;2.08;;;1.83;;
68653;SDS011;55636;51.108;13.622;2023-08-01T05:13:48;5.78;;;1.95;;
68653;SDS011;55636;51.108;13.622;2023-08-01T05:14:53;2.20;;;1.85;;
68653;SDS011;55636;51.108;13.622;2023-08-01T05:15:55;1.88;;;1.67;;
68653;SDS011;55636;51.108;13.622;2023-08-01T05:16:58;1.85;;;1.70;;
68653;SDS011;55636;51.108;13.622;2023-08-01T05:18:00;2.33;;;2.08;;
68653;SDS011;55636;51.108;13.622;2023-08-01T05:19:03;2.10;;;1.65;;
68653;SDS011;55636;51.108;13.622;2023-08-01T05:20:06;1.90;;;1.63;;
68653;SDS011;55636;51.108;13.622;2023-08-01T05:21:09;1.85;;;1.75;;
68653;SDS011;55636;51.108;13.622;2023-08-01T05:22:12;1.63;;;1.50;;
68653;SDS011;55636;51.108;13.622;2023-08-01T05:23:15;2.00;;;1.80;;
68653;SDS011;55636;51.108;13.622;2023-08-01T05:24:18;1.65;;;1.55;;
68653;SDS011;55636;51.108;13.622;2023-08-01T05:25:20;2.40;;;1.70;;
68653;SDS011;55636;51.108;13.622;2023-08-01T05:26:23;1.60;;;1.50;;
68653;SDS011;55636;51.108;13.622;2023-08-01T05:27:25;1.85;;;1.75;;
68653;SDS011;55636;51.108;13.622;2023-08-01T05:28:28;1.70;;;1.60;;
68653;SDS011;55636;51.108;13.622;2023-08-01T05:29:30;1.88;;;1.77;;
68653;SDS011;55636;51.108;13.622;2023-08-01T05:30:34;1.88;;;1.77;;
68653;SDS011;55636;51.108;13.622;2023-08-01T05:31:37;2.13;;;1.60;;
68653;SDS011;55636;51.108;13.622;2023-08-01T05:32:42;1.92;;;1.77;;
68653;SDS011;55636;51.108;13.622;2023-08-01T05:33:49;1.60;;;1.50;;
68653;SDS011;55636;51.108;13.622;2023-08-01T05:34:51;2.80;;;1.60;;
68653;SDS011;55636;51.108;13.622;2023-08-01T05:35:54;1.52;;;1.42;;
68653;SDS011;55636;51.108;13.622;2023-08-01T05:36:56;1.58;;;1.40;;
68653;SDS011;55636;51.108;13.622;2023-08-01T05:37:59;1.50;;;1.40;;
68653;SDS011;55636;51.108;13.622;2023-08-01T05:39:02;1.33;;;1.23;;
68653;SDS011;55636;51.108;13.622;2023-08-01T05:40:06;2.10;;;1.65;;
68653;SDS011;55636;51.108;13.622;2023-08-01T05:41:10;1.60;;;1.50;;
68653;SDS011;55636;51.108;13.622;2023-08-01T05:42:13;1.45;;;1.35;;
68653;SDS011;55636;51.108;13.622;2023-08-01T05:43:18;1.50;;;1.40;;
68653;SDS011;55636;51.108;13.622;2023-08-01T05:44:21;1.40;;;1.30;;
68653;SDS011;55636;51.108;13.622;2023-08-01T05:45:23;3.05;;;1.55;;
68653;SDS011;55636;51.108;13.622;2023-08-01T05:46:26;1.35;;;1.25;;
68653;SDS011;55636;51.108;13.622;2023-08-01T05:47:29;1.20;;;1.10;;
68653;SDS011;55636;51.108;13.622;2023-08-01T05:48:32;1.45;;;1.33;;
68653;SDS011;55636;51.108;13.622;2023-08-01T05:49:34;1.63;;;1.42;;
68653;SDS011;55636;51.108;13.622;2023-08-01T05:50:37;1.60;;;1.50;;
68653;SDS011;55636;51.108;13.622;2023-08-01T05:51:40;1.92;;;1.30;;
68653;SDS011;55636;51.108;13.622;2023-08-01T05:52:42;1.95;;;1.50;;
68653;SDS011;55636;51.108;13.622;2023-08-01T05:53:45;1.40;;;1.30;;
68653;SDS011;55636;51.108;13.622;2023-08-01T05:54:47;1.70;;;1.42;;
68653;SDS011;55636;51.108;13.622;2023-08-01T05:55:49;1.45;;;1.35;;
68653;SDS011;55636;51.108;13.622;2023-08-01T05:56:52;1.40;;;1.30;;
68653;SDS011;55636;51.108;13.622;2023-08-01T05:57:56;1.92;;;1.40;;
68653;SDS011;55636;51.108;13.622;2023-08-01T05:58:59;2.67;;;1.58;;
68653;SDS011;55636;51.108;13.622;2023-08-01T06:00:02;1.63;;;1.52;;
68653;SDS011;55636;51.108;13.622;2023-08-01T06:01:13;1.60;;;1.50;;
68653;SDS011;55636;51.108;13.622;2023-08-01T06:02:16;1.70;;;1.60;;
68653;SDS011;55636;51.108;13.622;2023-08-01T06:03:18;1.85;;;1.40;;
68653;SDS011;55636;51.108;13.622;2023-08-01T06:04:21;2.38;;;1.48;;
68653;SDS011;55636;51.108;13.622;2023-08-01T06:05:24;1.52;;;1.42;;
68653;SDS011;55636;51.108;13.622;2023-08-01T06:06:26;1.45;;;1.35;;
68653;SDS011;55636;51.108;13.622;2023-08-01T06:07:32;1.75;;;1.50;;
68653;SDS011;55636;51.108;13.622;2023-08-01T06:08:43;1.48;;;1.38;;
68653;SDS011;55636;51.108;13.622;2023-08-01T06:09:46;1.90;;;1.42;;
68653;SDS011;55636;51.108;13.622;2023-08-01T06:10:48;1.55;;;1.45;;
68653;SDS011;55636;51.108;13.622;2023-08-01T06:11:51;1.52;;;1.38;;
68653;SDS011;55636;51.108;13.622;2023-08-01T06:12:53;1.63;;;1.52;;
68653;SDS011;55636;51.108;13.622;2023-08-01T06:13:56;1.70;;;1.60;;
68653;SDS011;55636;51.108;13.622;2023-08-01T06:14:58;1.52;;;1.42;;